sensor_id;sensor_type;location;lat;lon;timestamp;P1;durP1;ratioP1;P2;durP2;ratioP2
21438;SDS011;10880;50.302;18.736;2024-03-08T00:01:42;39.67;;;14.87;;
21438;SDS011;10880;50.302;18.736;2024-03-08T00:04:11;35.13;;;13.60;;
21438;SDS011;10880;50.302;18.736;2024-03-08T00:06:41;31.13;;;12.83;;
21438;SDS011;10880;50.302;18.736;2024-03-08T00:09:12;29.00;;;12.63;;
21438;SDS011;10880;50.302;18.736;2024-03-08T00:11:40;23.93;;;12.10;;
21438;SDS011;10880;50.302;18.736;2024-03-08T00:14:09;31.17;;;13.87;;
21438;SDS011;10880;50.302;18.736;2024-03-08T00:16:37;27.90;;;12.90;;
21438;SDS011;10880;50.302;18.736;2024-03-08T00:19:15;32.93;;;13.23;;
21438;SDS011;10880;50.302;18.736;2024-03-08T00:21:44;27.50;;;12.27;;
21438;SDS011;10880;50.302;18.736;2024-03-08T00:24:12;30.40;;;12.10;;
21438;SDS011;10880;50.302;18.736;2024-03-08T00:26:40;25.53;;;11.47;;
21438;SDS011;10880;50.302;18.736;2024-03-08T00:29:09;24.13;;;10.83;;
21438;SDS011;10880;50.302;18.736;2024-03-08T00:31:36;21.87;;;10.77;;
21438;SDS011;10880;50.302;18.736;2024-03-08T00:34:04;22.60;;;10.97;;
21438;SDS011;10880;50.302;18.736;2024-03-08T00:36:31;23.20;;;10.87;;
21438;SDS011;10880;50.302;18.736;2024-03-08T00:38:58;25.07;;;12.57;;
21438;SDS011;10880;50.302;18.736;2024-03-08T00:41:26;25.03;;;11.80;;
21438;SDS011;10880;50.302;18.736;2024-03-08T00:43:54;27.67;;;11.63;;
21438;SDS011;10880;50.302;18.736;2024-03-08T00:46:21;24.80;;;11.50;;
21438;SDS011;10880;50.302;18.736;2024-03-08T00:48:49;27.17;;;12.03;;
21438;SDS011;10880;50.302;18.736;2024-03-08T00:51:19;25.43;;;12.03;;
21438;SDS011;10880;50.302;18.736;2024-03-08T00:53:46;27.57;;;12.73;;
21438;SDS011;10880;50.302;18.736;2024-03-08T00:56:14;32.10;;;14.20;;
21438;SDS011;10880;50.302;18.736;2024-03-08T00:58:43;27.17;;;12.10;;
21438;SDS011;10880;50.302;18.736;2024-03-08T01:01:10;32.30;;;14.43;;
21438;SDS011;10880;50.302;18.736;2024-03-08T01:04:04;31.57;;;13.07;;
21438;SDS011;10880;50.302;18.736;2024-03-08T01:06:38;29.40;;;12.97;;
21438;SDS011;10880;50.302;18.736;2024-03-08T01:09:09;28.27;;;12.40;;
21438;SDS011;10880;50.302;18.736;2024-03-08T01:11:38;29.00;;;13.77;;
21438;SDS011;10880;50.302;18.736;2024-03-08T01:14:05;25.73;;;11.70;;
21438;SDS011;10880;50.302;18.736;2024-03-08T01:16:58;29.77;;;13.33;;
21438;SDS011;10880;50.302;18.736;2024-03-08T01:19:25;31.80;;;13.87;;
21438;SDS011;10880;50.302;18.736;2024-03-08T01:22:12;26.77;;;12.70;;
21438;SDS011;10880;50.302;18.736;2024-03-08T01:24:44;28.07;;;13.63;;
21438;SDS011;10880;50.302;18.736;2024-03-08T01:27:15;29.83;;;13.47;;
21438;SDS011;10880;50.302;18.736;2024-03-08T01:29:44;37.67;;;16.87;;
21438;SDS011;10880;50.302;18.736;2024-03-08T01:32:20;37.10;;;15.63;;
21438;SDS011;10880;50.302;18.736;2024-03-08T01:35:00;37.43;;;16.23;;
21438;SDS011;10880;50.302;18.736;2024-03-08T01:37:29;45.87;;;18.53;;
21438;SDS011;10880;50.302;18.736;2024-03-08T01:39:58;36.90;;;15.53;;
21438;SDS011;10880;50.302;18.736;2024-03-08T01:42:27;30.57;;;13.83;;
21438;SDS011;10880;50.302;18.736;2024-03-08T01:44:55;37.07;;;16.47;;
21438;SDS011;10880;50.302;18.736;2024-03-08T01:47:24;36.23;;;15.83;;
21438;SDS011;10880;50.302;18.736;2024-03-08T01:49:52;39.57;;;17.83;;
21438;SDS011;10880;50.302;18.736;2024-03-08T01:52:23;41.33;;;17.47;;
21438;SDS011;10880;50.302;18.736;2024-03-08T01:54:52;31.33;;;15.50;;
21438;SDS011;10880;50.302;18.736;2024-03-08T01:57:20;24.23;;;11.97;;
21438;SDS011;10880;50.302;18.736;2024-03-08T01:59:49;31.20;;;14.57;;
21438;SDS011;10880;50.302;18.736;2024-03-08T02:02:22;25.43;;;11.83;;
21438;SDS011;10880;50.302;18.736;2024-03-08T02:04:57;25.40;;;12.10;;
21438;SDS011;10880;50.302;18.736;2024-03-08T02:07:31;25.00;;;11.33;;
21438;SDS011;10880;50.302;18.736;2024-03-08T02:09:59;22.73;;;11.43;;
21438;SDS011;10880;50.302;18.736;2024-03-08T02:12:27;25.70;;;12.33;;
21438;SDS011;10880;50.302;18.736;2024-03-08T02:14:56;31.27;;;14.27;;
21438;SDS011;10880;50.302;18.736;2024-03-08T02:17:31;31.07;;;14.70;;
21438;SDS011;10880;50.302;18.736;2024-03-08T02:19:59;27.40;;;13.43;;
21438;SDS011;10880;50.302;18.736;2024-03-08T02:22:31;24.27;;;11.93;;
21438;SDS011;10880;50.302;18.736;2024-03-08T02:24:58;25.77;;;12.40;;
21438;SDS011;10880;50.302;18.736;2024-03-08T02:27:27;25.10;;;12.93;;
21438;SDS011;10880;50.302;18.736;2024-03-08T02:29:55;27.17;;;12.33;;
21438;SDS011;10880;50.302;18.736;2024-03-08T02:32:22;20.97;;;10.73;;
21438;SDS011;10880;50.302;18.736;2024-03-08T02:34:50;26.27;;;12.37;;
21438;SDS011;10880;50.302;18.736;2024-03-08T02:37:19;25.70;;;12.13;;
21438;SDS011;10880;50.302;18.736;2024-03-08T02:39:45;26.53;;;11.67;;
21438;SDS011;10880;50.302;18.736;2024-03-08T02:42:12;24.30;;;11.63;;
21438;SDS011;10880;50.302;18.736;2024-03-08T02:44:42;29.13;;;12.67;;
21438;SDS011;10880;50.302;18.736;2024-03-08T02:47:09;20.37;;;11.50;;
21438;SDS011;10880;50.302;18.736;2024-03-08T02:49:36;30.67;;;12.97;;
21438;SDS011;10880;50.302;18.736;2024-03-08T02:52:04;31.13;;;13.93;;
21438;SDS011;10880;50.302;18.736;2024-03-08T02:54:32;26.33;;;11.83;;
21438;SDS011;10880;50.302;18.736;2024-03-08T02:57:09;28.07;;;13.17;;
21438;SDS011;10880;50.302;18.736;2024-03-08T02:59:40;22.87;;;11.40;;
21438;SDS011;10880;50.302;18.736;2024-03-08T03:02:17;27.33;;;13.73;;
21438;SDS011;10880;50.302;18.736;2024-03-08T03:04:47;32.53;;;14.37;;
21438;SDS011;10880;50.302;18.736;2024-03-08T03:07:17;29.10;;;13.83;;
21438;SDS011;10880;50.302;18.736;2024-03-08T03:09:45;30.73;;;14.10;;
21438;SDS011;10880;50.302;18.736;2024-03-08T03:12:15;29.73;;;14.03;;
21438;SDS011;10880;50.302;18.736;2024-03-08T03:14:47;28.30;;;14.07;;
21438;SDS011;10880;50.302;18.736;2024-03-08T03:17:51;29.10;;;14.37;;
21438;SDS011;10880;50.302;18.736;2024-03-08T03:20:18;29.03;;;12.70;;
21438;SDS011;10880;50.302;18.736;2024-03-08T03:22:59;25.13;;;13.17;;
21438;SDS011;10880;50.302;18.736;2024-03-08T03:25:49;27.53;;;12.83;;
21438;SDS011;10880;50.302;18.736;2024-03-08T03:28:19;27.23;;;12.47;;
21438;SDS011;10880;50.302;18.736;2024-03-08T03:30:59;26.40;;;12.67;;
21438;SDS011;10880;50.302;18.736;2024-03-08T03:33:28;26.33;;;12.03;;
21438;SDS011;10880;50.302;18.736;2024-03-08T03:36:01;31.77;;;14.43;;
21438;SDS011;10880;50.302;18.736;2024-03-08T03:38:32;30.60;;;14.83;;
21438;SDS011;10880;50.302;18.736;2024-03-08T03:41:13;29.97;;;13.77;;
21438;SDS011;10880;50.302;18.736;2024-03-08T03:44:02;23.40;;;11.33;;
21438;SDS011;10880;50.302;18.736;2024-03-08T03:46:32;29.03;;;13.33;;
21438;SDS011;10880;50.302;18.736;2024-03-08T03:49:05;27.23;;;13.63;;
21438;SDS011;10880;50.302;18.736;2024-03-08T03:51:34;32.23;;;15.13;;
21438;SDS011;10880;50.302;18.736;2024-03-08T03:54:06;24.07;;;12.67;;
21438;SDS011;10880;50.302;18.736;2024-03-08T03:56:34;28.07;;;13.77;;
21438;SDS011;10880;50.302;18.736;2024-03-08T03:59:10;23.37;;;11.07;;
21438;SDS011;10880;50.302;18.736;2024-03-08T04:01:43;23.60;;;11.63;;
21438;SDS011;10880;50.302;18.736;2024-03-08T04:04:11;24.20;;;11.37;;
21438;SDS011;10880;50.302;18.736;2024-03-08T04:06:51;22.93;;;10.93;;
21438;SDS011;10880;50.302;18.736;2024-03-08T04:09:19;24.03;;;12.70;;
21438;SDS011;10880;50.302;18.736;2024-03-08T04:11:50;21.97;;;11.13;;
21438;SDS011;10880;50.302;18.736;2024-03-08T04:14:32;20.97;;;10.43;;
21438;SDS011;10880;50.302;18.736;2024-03-08T04:17:09;22.03;;;11.40;;
21438;SDS011;10880;50.302;18.736;2024-03-08T04:19:41;21.43;;;11.13;;
21438;SDS011;10880;50.302;18.736;2024-03-08T04:22:15;24.20;;;11.47;;
21438;SDS011;10880;50.302;18.736;2024-03-08T04:24:45;20.80;;;11.37;;
21438;SDS011;10880;50.302;18.736;2024-03-08T04:27:13;19.90;;;10.63;;
21438;SDS011;10880;50.302;18.736;2024-03-08T04:29:40;21.97;;;10.93;;
21438;SDS011;10880;50.302;18.736;2024-03-08T04:32:07;20.63;;;10.37;;
21438;SDS011;10880;50.302;18.736;2024-03-08T04:34:51;17.80;;;9.17;;
21438;SDS011;10880;50.302;18.736;2024-03-08T04:37:23;21.47;;;11.10;;
21438;SDS011;10880;50.302;18.736;2024-03-08T04:39:55;17.77;;;9.77;;
21438;SDS011;10880;50.302;18.736;2024-03-08T04:42:22;22.17;;;11.33;;
21438;SDS011;10880;50.302;18.736;2024-03-08T04:44:52;21.20;;;10.40;;
21438;SDS011;10880;50.302;18.736;2024-03-08T04:47:48;21.40;;;10.00;;
21438;SDS011;10880;50.302;18.736;2024-03-08T04:50:29;25.57;;;11.73;;
21438;SDS011;10880;50.302;18.736;2024-03-08T04:53:02;21.03;;;10.50;;
21438;SDS011;10880;50.302;18.736;2024-03-08T04:55:56;20.20;;;10.40;;
21438;SDS011;10880;50.302;18.736;2024-03-08T04:58:32;21.70;;;10.73;;
21438;SDS011;10880;50.302;18.736;2024-03-08T05:01:08;20.97;;;10.40;;
21438;SDS011;10880;50.302;18.736;2024-03-08T05:03:46;19.90;;;10.03;;
21438;SDS011;10880;50.302;18.736;2024-03-08T05:06:23;20.70;;;9.70;;
21438;SDS011;10880;50.302;18.736;2024-03-08T05:08:53;15.67;;;8.90;;
21438;SDS011;10880;50.302;18.736;2024-03-08T05:11:47;19.40;;;9.37;;
21438;SDS011;10880;50.302;18.736;2024-03-08T05:14:22;16.97;;;9.13;;
21438;SDS011;10880;50.302;18.736;2024-03-08T05:16:55;23.23;;;10.47;;
21438;SDS011;10880;50.302;18.736;2024-03-08T05:19:26;15.07;;;8.53;;
21438;SDS011;10880;50.302;18.736;2024-03-08T05:21:58;20.67;;;9.63;;
21438;SDS011;10880;50.302;18.736;2024-03-08T05:24:45;26.97;;;12.20;;
21438;SDS011;10880;50.302;18.736;2024-03-08T05:27:44;29.67;;;12.80;;
21438;SDS011;10880;50.302;18.736;2024-03-08T05:30:23;30.57;;;13.27;;
21438;SDS011;10880;50.302;18.736;2024-03-08T05:32:56;32.47;;;14.53;;
21438;SDS011;10880;50.302;18.736;2024-03-08T05:35:43;31.73;;;14.53;;
21438;SDS011;10880;50.302;18.736;2024-03-08T05:38:15;28.97;;;13.37;;
21438;SDS011;10880;50.302;18.736;2024-03-08T05:40:49;34.33;;;15.23;;
21438;SDS011;10880;50.302;18.736;2024-03-08T05:43:21;35.53;;;16.47;;
21438;SDS011;10880;50.302;18.736;2024-03-08T05:45:49;37.10;;;17.73;;
21438;SDS011;10880;50.302;18.736;2024-03-08T05:48:31;35.97;;;15.80;;
21438;SDS011;10880;50.302;18.736;2024-03-08T05:51:08;29.77;;;13.10;;
21438;SDS011;10880;50.302;18.736;2024-03-08T05:53:42;24.73;;;12.23;;
21438;SDS011;10880;50.302;18.736;2024-03-08T05:56:41;32.20;;;14.83;;
21438;SDS011;10880;50.302;18.736;2024-03-08T05:59:28;35.33;;;15.10;;
21438;SDS011;10880;50.302;18.736;2024-03-08T06:02:20;34.67;;;16.03;;
21438;SDS011;10880;50.302;18.736;2024-03-08T06:05:20;25.23;;;13.33;;
21438;SDS011;10880;50.302;18.736;2024-03-08T06:07:56;26.97;;;12.53;;
21438;SDS011;10880;50.302;18.736;2024-03-08T06:10:29;30.57;;;14.70;;
21438;SDS011;10880;50.302;18.736;2024-03-08T06:13:18;24.00;;;12.37;;
21438;SDS011;10880;50.302;18.736;2024-03-08T06:15:51;23.60;;;12.00;;
21438;SDS011;10880;50.302;18.736;2024-03-08T06:18:34;25.07;;;13.20;;
21438;SDS011;10880;50.302;18.736;2024-03-08T06:21:10;22.57;;;11.17;;
21438;SDS011;10880;50.302;18.736;2024-03-08T06:23:38;19.97;;;11.53;;
21438;SDS011;10880;50.302;18.736;2024-03-08T06:26:04;21.07;;;11.40;;
21438;SDS011;10880;50.302;18.736;2024-03-08T06:28:31;22.47;;;12.07;;
21438;SDS011;10880;50.302;18.736;2024-03-08T06:30:58;28.90;;;14.17;;
21438;SDS011;10880;50.302;18.736;2024-03-08T06:33:25;25.70;;;12.53;;
21438;SDS011;10880;50.302;18.736;2024-03-08T06:35:54;24.80;;;12.90;;
21438;SDS011;10880;50.302;18.736;2024-03-08T06:38:27;26.97;;;13.00;;
21438;SDS011;10880;50.302;18.736;2024-03-08T06:41:04;27.80;;;13.97;;
21438;SDS011;10880;50.302;18.736;2024-03-08T06:43:32;20.43;;;11.37;;
21438;SDS011;10880;50.302;18.736;2024-03-08T06:46:02;20.87;;;10.43;;
21438;SDS011;10880;50.302;18.736;2024-03-08T06:48:33;22.77;;;11.77;;
21438;SDS011;10880;50.302;18.736;2024-03-08T06:51:01;32.80;;;15.47;;
21438;SDS011;10880;50.302;18.736;2024-03-08T06:53:27;26.67;;;13.60;;
21438;SDS011;10880;50.302;18.736;2024-03-08T06:55:54;31.03;;;15.30;;
21438;SDS011;10880;50.302;18.736;2024-03-08T06:58:22;29.00;;;14.50;;
21438;SDS011;10880;50.302;18.736;2024-03-08T07:00:50;24.97;;;12.63;;
21438;SDS011;10880;50.302;18.736;2024-03-08T07:03:19;20.27;;;10.70;;
21438;SDS011;10880;50.302;18.736;2024-03-08T07:05:50;23.33;;;12.53;;
21438;SDS011;10880;50.302;18.736;2024-03-08T07:08:17;25.23;;;12.53;;
21438;SDS011;10880;50.302;18.736;2024-03-08T07:10:44;20.50;;;10.93;;
21438;SDS011;10880;50.302;18.736;2024-03-08T07:13:13;18.67;;;9.90;;
21438;SDS011;10880;50.302;18.736;2024-03-08T07:15:39;21.23;;;10.60;;
21438;SDS011;10880;50.302;18.736;2024-03-08T07:18:09;18.13;;;10.33;;
21438;SDS011;10880;50.302;18.736;2024-03-08T07:20:40;15.90;;;9.40;;
21438;SDS011;10880;50.302;18.736;2024-03-08T07:23:07;12.93;;;7.57;;
21438;SDS011;10880;50.302;18.736;2024-03-08T07:25:56;13.73;;;8.50;;
21438;SDS011;10880;50.302;18.736;2024-03-08T07:28:24;15.97;;;9.67;;
21438;SDS011;10880;50.302;18.736;2024-03-08T07:30:52;17.37;;;9.80;;
21438;SDS011;10880;50.302;18.736;2024-03-08T07:33:26;18.90;;;10.40;;
21438;SDS011;10880;50.302;18.736;2024-03-08T07:35:53;20.33;;;11.13;;
21438;SDS011;10880;50.302;18.736;2024-03-08T07:38:19;18.70;;;10.67;;
21438;SDS011;10880;50.302;18.736;2024-03-08T07:40:47;19.53;;;10.27;;
21438;SDS011;10880;50.302;18.736;2024-03-08T07:43:13;22.90;;;12.83;;
21438;SDS011;10880;50.302;18.736;2024-03-08T07:45:40;23.03;;;12.13;;
21438;SDS011;10880;50.302;18.736;2024-03-08T07:48:07;16.83;;;9.50;;
21438;SDS011;10880;50.302;18.736;2024-03-08T07:50:38;18.50;;;10.57;;
21438;SDS011;10880;50.302;18.736;2024-03-08T07:53:14;18.60;;;10.17;;
21438;SDS011;10880;50.302;18.736;2024-03-08T07:55:52;25.03;;;12.77;;
21438;SDS011;10880;50.302;18.736;2024-03-08T07:58:26;22.60;;;11.23;;
21438;SDS011;10880;50.302;18.736;2024-03-08T08:01:05;24.77;;;12.63;;
21438;SDS011;10880;50.302;18.736;2024-03-08T08:03:40;22.73;;;12.20;;
21438;SDS011;10880;50.302;18.736;2024-03-08T08:06:17;18.43;;;10.17;;
21438;SDS011;10880;50.302;18.736;2024-03-08T08:08:44;18.83;;;10.33;;
21438;SDS011;10880;50.302;18.736;2024-03-08T08:11:11;19.40;;;11.37;;
21438;SDS011;10880;50.302;18.736;2024-03-08T08:13:38;16.57;;;8.63;;
21438;SDS011;10880;50.302;18.736;2024-03-08T08:16:08;17.17;;;10.10;;
21438;SDS011;10880;50.302;18.736;2024-03-08T08:18:38;18.80;;;10.17;;
21438;SDS011;10880;50.302;18.736;2024-03-08T08:21:07;19.97;;;10.70;;
21438;SDS011;10880;50.302;18.736;2024-03-08T08:23:37;15.67;;;8.53;;
21438;SDS011;10880;50.302;18.736;2024-03-08T08:26:07;21.03;;;11.57;;
21438;SDS011;10880;50.302;18.736;2024-03-08T08:28:33;20.07;;;11.90;;
21438;SDS011;10880;50.302;18.736;2024-03-08T08:31:00;21.87;;;11.67;;
21438;SDS011;10880;50.302;18.736;2024-03-08T08:33:34;21.57;;;11.87;;
21438;SDS011;10880;50.302;18.736;2024-03-08T08:36:02;19.70;;;10.10;;
21438;SDS011;10880;50.302;18.736;2024-03-08T08:38:29;16.50;;;10.30;;
21438;SDS011;10880;50.302;18.736;2024-03-08T08:40:59;24.30;;;13.03;;
21438;SDS011;10880;50.302;18.736;2024-03-08T08:43:28;23.70;;;13.33;;
21438;SDS011;10880;50.302;18.736;2024-03-08T08:45:55;24.97;;;13.20;;
21438;SDS011;10880;50.302;18.736;2024-03-08T08:48:23;28.77;;;13.63;;
21438;SDS011;10880;50.302;18.736;2024-03-08T08:50:52;24.23;;;11.93;;
21438;SDS011;10880;50.302;18.736;2024-03-08T08:53:19;14.80;;;9.07;;
21438;SDS011;10880;50.302;18.736;2024-03-08T08:55:47;18.00;;;10.13;;
21438;SDS011;10880;50.302;18.736;2024-03-08T08:58:15;22.07;;;10.67;;
21438;SDS011;10880;50.302;18.736;2024-03-08T09:00:44;15.60;;;9.17;;
21438;SDS011;10880;50.302;18.736;2024-03-08T09:03:15;17.60;;;10.77;;
21438;SDS011;10880;50.302;18.736;2024-03-08T09:05:45;20.63;;;11.93;;
21438;SDS011;10880;50.302;18.736;2024-03-08T09:08:13;21.07;;;11.97;;
21438;SDS011;10880;50.302;18.736;2024-03-08T09:10:42;17.50;;;10.43;;
21438;SDS011;10880;50.302;18.736;2024-03-08T09:13:14;17.20;;;9.83;;
21438;SDS011;10880;50.302;18.736;2024-03-08T09:15:42;21.93;;;11.13;;
21438;SDS011;10880;50.302;18.736;2024-03-08T09:18:13;18.83;;;10.93;;
21438;SDS011;10880;50.302;18.736;2024-03-08T09:20:45;16.57;;;9.07;;
21438;SDS011;10880;50.302;18.736;2024-03-08T09:23:12;18.83;;;11.50;;
21438;SDS011;10880;50.302;18.736;2024-03-08T09:25:44;24.07;;;13.03;;
21438;SDS011;10880;50.302;18.736;2024-03-08T09:28:14;21.03;;;12.47;;
21438;SDS011;10880;50.302;18.736;2024-03-08T09:30:43;24.60;;;12.90;;
21438;SDS011;10880;50.302;18.736;2024-03-08T09:33:10;16.87;;;9.90;;
21438;SDS011;10880;50.302;18.736;2024-03-08T09:35:46;17.03;;;9.47;;
21438;SDS011;10880;50.302;18.736;2024-03-08T09:38:17;17.10;;;9.90;;
21438;SDS011;10880;50.302;18.736;2024-03-08T09:40:47;18.63;;;10.50;;
21438;SDS011;10880;50.302;18.736;2024-03-08T09:43:14;17.50;;;9.57;;
21438;SDS011;10880;50.302;18.736;2024-03-08T09:45:45;19.87;;;9.87;;
21438;SDS011;10880;50.302;18.736;2024-03-08T09:48:23;17.27;;;9.90;;
21438;SDS011;10880;50.302;18.736;2024-03-08T09:50:52;22.73;;;12.03;;
21438;SDS011;10880;50.302;18.736;2024-03-08T09:53:24;21.33;;;11.77;;
21438;SDS011;10880;50.302;18.736;2024-03-08T09:55:53;20.03;;;11.33;;
21438;SDS011;10880;50.302;18.736;2024-03-08T09:58:21;18.60;;;10.93;;
21438;SDS011;10880;50.302;18.736;2024-03-08T10:01:20;22.80;;;11.67;;
21438;SDS011;10880;50.302;18.736;2024-03-08T10:03:48;15.63;;;9.03;;
21438;SDS011;10880;50.302;18.736;2024-03-08T10:06:24;13.57;;;8.07;;
21438;SDS011;10880;50.302;18.736;2024-03-08T10:08:53;15.53;;;9.47;;
21438;SDS011;10880;50.302;18.736;2024-03-08T10:11:27;20.23;;;11.30;;
21438;SDS011;10880;50.302;18.736;2024-03-08T10:13:54;17.37;;;10.33;;
21438;SDS011;10880;50.302;18.736;2024-03-08T10:16:22;18.60;;;10.60;;
21438;SDS011;10880;50.302;18.736;2024-03-08T10:18:56;22.93;;;12.40;;
21438;SDS011;10880;50.302;18.736;2024-03-08T10:21:47;18.60;;;10.00;;
21438;SDS011;10880;50.302;18.736;2024-03-08T10:24:23;18.80;;;10.73;;
21438;SDS011;10880;50.302;18.736;2024-03-08T10:26:55;23.60;;;13.67;;
21438;SDS011;10880;50.302;18.736;2024-03-08T10:29:27;20.90;;;12.23;;
21438;SDS011;10880;50.302;18.736;2024-03-08T10:31:57;18.63;;;11.47;;
21438;SDS011;10880;50.302;18.736;2024-03-08T10:34:23;31.30;;;16.47;;
21438;SDS011;10880;50.302;18.736;2024-03-08T10:36:57;20.70;;;12.73;;
21438;SDS011;10880;50.302;18.736;2024-03-08T10:39:33;19.57;;;11.50;;
21438;SDS011;10880;50.302;18.736;2024-03-08T10:42:03;18.07;;;10.13;;
21438;SDS011;10880;50.302;18.736;2024-03-08T10:44:40;29.40;;;14.53;;
21438;SDS011;10880;50.302;18.736;2024-03-08T10:50:01;23.30;;;13.90;;
21438;SDS011;10880;50.302;18.736;2024-03-08T10:52:34;17.83;;;10.60;;
21438;SDS011;10880;50.302;18.736;2024-03-08T10:55:07;16.40;;;9.70;;
21438;SDS011;10880;50.302;18.736;2024-03-08T10:57:39;13.73;;;8.53;;
21438;SDS011;10880;50.302;18.736;2024-03-08T11:00:10;23.27;;;13.80;;
21438;SDS011;10880;50.302;18.736;2024-03-08T11:02:44;18.27;;;10.40;;
21438;SDS011;10880;50.302;18.736;2024-03-08T11:05:15;15.80;;;9.90;;
21438;SDS011;10880;50.302;18.736;2024-03-08T11:08:01;23.47;;;12.50;;
21438;SDS011;10880;50.302;18.736;2024-03-08T11:10:31;20.90;;;12.07;;
21438;SDS011;10880;50.302;18.736;2024-03-08T11:13:03;18.30;;;10.53;;
21438;SDS011;10880;50.302;18.736;2024-03-08T11:15:41;17.67;;;11.00;;
21438;SDS011;10880;50.302;18.736;2024-03-08T11:18:12;24.73;;;14.03;;
21438;SDS011;10880;50.302;18.736;2024-03-08T11:20:50;19.67;;;11.77;;
21438;SDS011;10880;50.302;18.736;2024-03-08T11:23:24;24.40;;;11.83;;
21438;SDS011;10880;50.302;18.736;2024-03-08T11:25:52;21.27;;;12.30;;
21438;SDS011;10880;50.302;18.736;2024-03-08T11:28:19;19.17;;;10.63;;
21438;SDS011;10880;50.302;18.736;2024-03-08T11:33:27;12.83;;;8.47;;
21438;SDS011;10880;50.302;18.736;2024-03-08T11:36:10;20.40;;;11.40;;
21438;SDS011;10880;50.302;18.736;2024-03-08T11:38:48;20.53;;;12.23;;
21438;SDS011;10880;50.302;18.736;2024-03-08T11:41:18;18.83;;;11.53;;
21438;SDS011;10880;50.302;18.736;2024-03-08T11:44:01;14.30;;;9.30;;
21438;SDS011;10880;50.302;18.736;2024-03-08T11:46:33;21.10;;;12.80;;
21438;SDS011;10880;50.302;18.736;2024-03-08T11:49:03;23.60;;;13.23;;
21438;SDS011;10880;50.302;18.736;2024-03-08T11:51:36;24.63;;;14.03;;
21438;SDS011;10880;50.302;18.736;2024-03-08T11:54:18;16.73;;;10.37;;
21438;SDS011;10880;50.302;18.736;2024-03-08T11:56:51;19.90;;;10.93;;
21438;SDS011;10880;50.302;18.736;2024-03-08T11:59:19;21.63;;;12.67;;
21438;SDS011;10880;50.302;18.736;2024-03-08T12:01:58;14.43;;;8.13;;
21438;SDS011;10880;50.302;18.736;2024-03-08T12:04:37;18.23;;;10.73;;
21438;SDS011;10880;50.302;18.736;2024-03-08T12:07:04;16.43;;;9.93;;
21438;SDS011;10880;50.302;18.736;2024-03-08T12:09:38;18.60;;;10.10;;
21438;SDS011;10880;50.302;18.736;2024-03-08T12:12:28;16.93;;;9.07;;
21438;SDS011;10880;50.302;18.736;2024-03-08T12:15:04;13.80;;;8.27;;
21438;SDS011;10880;50.302;18.736;2024-03-08T12:17:33;17.10;;;10.17;;
21438;SDS011;10880;50.302;18.736;2024-03-08T12:20:22;22.73;;;12.57;;
21438;SDS011;10880;50.302;18.736;2024-03-08T12:23:03;19.40;;;11.73;;
21438;SDS011;10880;50.302;18.736;2024-03-08T12:25:36;18.03;;;10.40;;
21438;SDS011;10880;50.302;18.736;2024-03-08T12:28:08;17.37;;;9.50;;
21438;SDS011;10880;50.302;18.736;2024-03-08T12:30:47;22.77;;;12.87;;
21438;SDS011;10880;50.302;18.736;2024-03-08T12:33:21;17.97;;;9.83;;
21438;SDS011;10880;50.302;18.736;2024-03-08T12:35:56;16.17;;;9.23;;
21438;SDS011;10880;50.302;18.736;2024-03-08T12:38:29;15.13;;;8.80;;
21438;SDS011;10880;50.302;18.736;2024-03-08T12:41:00;19.40;;;10.83;;
21438;SDS011;10880;50.302;18.736;2024-03-08T12:43:31;17.67;;;10.37;;
21438;SDS011;10880;50.302;18.736;2024-03-08T12:46:00;17.03;;;10.20;;
21438;SDS011;10880;50.302;18.736;2024-03-08T12:48:27;19.10;;;11.10;;
21438;SDS011;10880;50.302;18.736;2024-03-08T12:50:56;13.43;;;8.17;;
21438;SDS011;10880;50.302;18.736;2024-03-08T12:53:27;12.90;;;8.20;;
21438;SDS011;10880;50.302;18.736;2024-03-08T12:55:56;13.10;;;8.27;;
21438;SDS011;10880;50.302;18.736;2024-03-08T12:58:28;13.33;;;7.17;;
21438;SDS011;10880;50.302;18.736;2024-03-08T13:01:00;15.23;;;9.23;;
21438;SDS011;10880;50.302;18.736;2024-03-08T13:03:29;12.93;;;7.40;;
21438;SDS011;10880;50.302;18.736;2024-03-08T13:05:58;18.07;;;9.93;;
21438;SDS011;10880;50.302;18.736;2024-03-08T13:08:32;17.07;;;9.40;;
21438;SDS011;10880;50.302;18.736;2024-03-08T13:11:02;16.77;;;8.87;;
21438;SDS011;10880;50.302;18.736;2024-03-08T13:13:51;15.53;;;9.30;;
21438;SDS011;10880;50.302;18.736;2024-03-08T13:16:20;16.13;;;9.00;;
21438;SDS011;10880;50.302;18.736;2024-03-08T13:18:47;12.73;;;7.77;;
21438;SDS011;10880;50.302;18.736;2024-03-08T13:21:15;20.53;;;11.73;;
21438;SDS011;10880;50.302;18.736;2024-03-08T13:23:46;23.33;;;12.23;;
21438;SDS011;10880;50.302;18.736;2024-03-08T13:26:16;17.80;;;11.00;;
21438;SDS011;10880;50.302;18.736;2024-03-08T13:28:49;14.77;;;8.97;;
21438;SDS011;10880;50.302;18.736;2024-03-08T13:31:22;11.90;;;7.40;;
21438;SDS011;10880;50.302;18.736;2024-03-08T13:33:48;10.93;;;6.53;;
21438;SDS011;10880;50.302;18.736;2024-03-08T13:36:18;27.13;;;11.83;;
21438;SDS011;10880;50.302;18.736;2024-03-08T13:38:48;17.67;;;9.97;;
21438;SDS011;10880;50.302;18.736;2024-03-08T13:41:16;15.10;;;9.83;;
21438;SDS011;10880;50.302;18.736;2024-03-08T13:43:50;12.73;;;7.83;;
21438;SDS011;10880;50.302;18.736;2024-03-08T13:46:20;9.20;;;6.57;;
21438;SDS011;10880;50.302;18.736;2024-03-08T13:48:47;18.87;;;11.27;;
21438;SDS011;10880;50.302;18.736;2024-03-08T13:51:16;20.83;;;11.13;;
21438;SDS011;10880;50.302;18.736;2024-03-08T13:53:43;20.73;;;10.70;;
21438;SDS011;10880;50.302;18.736;2024-03-08T13:56:10;13.73;;;8.60;;
21438;SDS011;10880;50.302;18.736;2024-03-08T13:58:38;16.30;;;9.53;;
21438;SDS011;10880;50.302;18.736;2024-03-08T14:01:07;18.30;;;10.00;;
21438;SDS011;10880;50.302;18.736;2024-03-08T14:03:37;17.27;;;9.93;;
21438;SDS011;10880;50.302;18.736;2024-03-08T14:06:08;19.13;;;10.60;;
21438;SDS011;10880;50.302;18.736;2024-03-08T14:08:37;15.07;;;9.23;;
21438;SDS011;10880;50.302;18.736;2024-03-08T14:11:06;20.93;;;11.60;;
21438;SDS011;10880;50.302;18.736;2024-03-08T14:13:41;18.43;;;10.23;;
21438;SDS011;10880;50.302;18.736;2024-03-08T14:16:12;18.90;;;10.93;;
21438;SDS011;10880;50.302;18.736;2024-03-08T14:18:41;17.93;;;10.47;;
21438;SDS011;10880;50.302;18.736;2024-03-08T14:21:08;22.17;;;12.77;;
21438;SDS011;10880;50.302;18.736;2024-03-08T14:23:43;15.77;;;9.73;;
21438;SDS011;10880;50.302;18.736;2024-03-08T14:26:10;11.10;;;7.67;;
21438;SDS011;10880;50.302;18.736;2024-03-08T14:28:37;13.77;;;7.93;;
21438;SDS011;10880;50.302;18.736;2024-03-08T14:31:06;16.67;;;9.93;;
21438;SDS011;10880;50.302;18.736;2024-03-08T14:33:41;14.97;;;8.50;;
21438;SDS011;10880;50.302;18.736;2024-03-08T14:36:11;17.07;;;9.87;;
21438;SDS011;10880;50.302;18.736;2024-03-08T14:38:40;12.40;;;8.20;;
21438;SDS011;10880;50.302;18.736;2024-03-08T14:41:07;12.40;;;7.83;;
21438;SDS011;10880;50.302;18.736;2024-03-08T14:43:44;12.77;;;7.87;;
21438;SDS011;10880;50.302;18.736;2024-03-08T14:46:23;12.63;;;7.60;;